createdAt,value
2018-08-19T00:01:52.047Z,18.40
2018-08-19T00:04:24.418Z,18.40
2018-08-19T00:06:54.950Z,18.40
2018-08-19T00:09:23.717Z,18.40
2018-08-19T00:11:58.730Z,18.30
2018-08-19T00:14:30.933Z,18.30
2018-08-19T00:17:01.402Z,18.30
2018-08-19T00:19:34.106Z,18.30
2018-08-19T00:22:02.735Z,18.30
2018-08-19T00:24:35.168Z,18.30
2018-08-19T00:27:07.116Z,18.30
2018-08-19T00:29:38.908Z,18.30
2018-08-19T00:32:08.519Z,18.20
2018-08-19T00:34:38.137Z,18.20
2018-08-19T00:37:12.166Z,18.20
2018-08-19T00:39:46.303Z,18.10
2018-08-19T00:42:26.878Z,18.10
2018-08-19T00:44:59.558Z,18.10
2018-08-19T00:47:32.966Z,18.10
2018-08-19T00:50:05.110Z,18.10
2018-08-19T00:52:44.110Z,18.20
2018-08-19T00:55:25.545Z,18.20
2018-08-19T00:57:59.598Z,18.30
2018-08-19T01:00:29.672Z,18.30
2018-08-19T01:03:11.030Z,18.40
2018-08-19T01:05:40.738Z,18.40
2018-08-19T01:08:10.490Z,18.40
2018-08-19T01:10:43.364Z,18.30
2018-08-19T01:13:19.398Z,18.30
2018-08-19T01:15:50.002Z,18.30
2018-08-19T01:18:22.378Z,18.30
2018-08-19T01:21:03.218Z,18.30
2018-08-19T01:23:35.066Z,18.20
2018-08-19T01:26:05.735Z,18.30
2018-08-19T01:28:40.674Z,18.20
2018-08-19T01:31:10.086Z,18.10
2018-08-19T01:33:47.226Z,18.00
2018-08-19T01:36:20.376Z,17.90
2018-08-19T01:38:50.848Z,17.90
2018-08-19T01:41:22.982Z,17.80
2018-08-19T01:44:11.786Z,17.60
2018-08-19T01:46:51.873Z,17.50
2018-08-19T01:49:23.319Z,17.30
2018-08-19T01:51:57.622Z,17.10
2018-08-19T01:54:31.194Z,17.00
2018-08-19T01:57:04.924Z,16.90
2018-08-19T01:59:36.481Z,16.80
2018-08-19T02:02:06.579Z,16.80
2018-08-19T02:04:56.093Z,16.70
2018-08-19T02:07:29.305Z,16.70
2018-08-19T02:10:06.446Z,16.70
2018-08-19T02:12:38.039Z,16.60
2018-08-19T02:15:12.231Z,16.70
2018-08-19T02:17:47.139Z,16.60
2018-08-19T02:20:15.868Z,16.60
2018-08-19T02:22:49.713Z,16.60
2018-08-19T02:25:18.415Z,16.50
2018-08-19T02:27:50.078Z,16.40
2018-08-19T02:30:19.727Z,16.40
2018-08-19T02:33:03.830Z,16.30
2018-08-19T02:35:40.500Z,16.30
2018-08-19T02:38:09.105Z,16.20
2018-08-19T02:40:51.609Z,16.20
2018-08-19T02:43:25.524Z,16.10
2018-08-19T02:46:12.673Z,16.20
2018-08-19T02:48:49.092Z,16.10
2018-08-19T02:51:21.398Z,16.20
2018-08-19T02:54:09.138Z,16.20
2018-08-19T02:56:42.786Z,16.10
2018-08-19T02:59:13.382Z,16.10
2018-08-19T03:02:06.548Z,16.00
2018-08-19T03:04:38.318Z,15.90
2018-08-19T03:07:12.791Z,15.90
2018-08-19T03:09:42.815Z,15.90
2018-08-19T03:12:21.815Z,15.90
2018-08-19T03:15:06.872Z,15.80
2018-08-19T03:20:27.853Z,15.70
2018-08-19T03:22:56.204Z,15.70
2018-08-19T03:25:26.937Z,15.70
2018-08-19T03:27:57.875Z,15.60
2018-08-19T03:30:27.505Z,15.60
2018-08-19T03:33:01.213Z,15.50
2018-08-19T03:35:31.644Z,15.50
2018-08-19T03:38:06.560Z,15.40
2018-08-19T03:40:36.181Z,15.40
2018-08-19T03:43:10.454Z,15.40
2018-08-19T03:45:40.931Z,15.30
2018-08-19T03:48:10.672Z,15.30
2018-08-19T03:51:04.064Z,15.20
2018-08-19T03:53:33.718Z,15.20
2018-08-19T03:56:26.226Z,15.20
2018-08-19T03:58:58.871Z,15.20
2018-08-19T04:01:39.419Z,15.10
2018-08-19T04:04:12.323Z,15.10
2018-08-19T04:06:43.108Z,15.00
2018-08-19T04:09:13.081Z,15.00
2018-08-19T04:11:59.566Z,15.00
2018-08-19T04:14:46.487Z,14.90
2018-08-19T04:17:26.484Z,14.90
2018-08-19T04:20:07.121Z,14.90
2018-08-19T04:22:37.710Z,14.90
2018-08-19T04:25:15.599Z,14.80
2018-08-19T04:27:44.236Z,14.90
2018-08-19T04:30:13.930Z,14.80
2018-08-19T04:32:42.613Z,14.80
2018-08-19T04:35:27.159Z,14.80
2018-08-19T04:37:56.982Z,14.80
2018-08-19T04:40:29.926Z,14.70
2018-08-19T04:43:03.682Z,14.70
2018-08-19T04:45:33.531Z,14.80
2018-08-19T04:48:02.319Z,14.70
2018-08-19T04:50:31.012Z,14.70
2018-08-19T04:53:01.776Z,14.80
2018-08-19T04:55:30.281Z,14.80
2018-08-19T04:58:00.739Z,14.90
2018-08-19T05:03:22.492Z,14.90
2018-08-19T05:06:01.368Z,14.90
2018-08-19T05:08:39.519Z,14.90
2018-08-19T05:11:08.659Z,14.90
2018-08-19T05:13:39.218Z,15.00
2018-08-19T05:16:08.903Z,15.00
2018-08-19T05:18:53.565Z,15.00
2018-08-19T05:21:25.900Z,15.00
2018-08-19T05:23:55.451Z,15.10
2018-08-19T05:26:26.026Z,15.10
2018-08-19T05:29:06.975Z,15.20
2018-08-19T05:31:43.999Z,15.30
2018-08-19T05:34:21.785Z,15.30
2018-08-19T05:37:04.100Z,15.30
2018-08-19T05:39:39.411Z,15.40
2018-08-19T05:42:18.097Z,15.60
2018-08-19T05:47:56.588Z,16.10
2018-08-19T05:50:27.122Z,16.40
2018-08-19T05:52:56.745Z,16.50
2018-08-19T05:55:31.890Z,16.60
2018-08-19T05:58:00.642Z,16.70
2018-08-19T06:00:40.101Z,16.80
2018-08-19T06:03:24.628Z,16.80
2018-08-19T06:05:57.434Z,16.90
2018-08-19T06:08:27.903Z,16.90
2018-08-19T06:10:56.607Z,17.00
2018-08-19T06:13:28.545Z,17.10
2018-08-19T06:16:14.813Z,17.20
2018-08-19T06:18:48.710Z,17.20
2018-08-19T06:21:23.391Z,17.30
2018-08-19T06:23:56.733Z,17.40
2018-08-19T06:26:43.395Z,17.40
2018-08-19T06:29:14.061Z,17.50
2018-08-19T06:31:50.047Z,17.60
2018-08-19T06:34:26.830Z,17.50
2018-08-19T06:36:57.657Z,17.60
2018-08-19T06:39:26.353Z,17.60
2018-08-19T06:42:02.522Z,17.70
2018-08-19T06:44:41.893Z,17.70
2018-08-19T06:47:11.571Z,17.80
2018-08-19T06:49:55.905Z,17.90
2018-08-19T06:52:26.033Z,17.90
2018-08-19T06:54:54.795Z,18.00
2018-08-19T06:57:28.492Z,18.00
2018-08-19T07:00:05.566Z,18.20
2018-08-19T07:02:35.056Z,18.30
2018-08-19T07:05:11.383Z,18.40
2018-08-19T07:07:45.670Z,18.50
2018-08-19T07:10:27.990Z,18.50
2018-08-19T07:13:13.718Z,18.50
2018-08-19T07:15:43.510Z,18.50
2018-08-19T07:18:30.181Z,18.60
2018-08-19T07:21:00.716Z,18.70
2018-08-19T07:23:29.681Z,18.70
2018-08-19T07:26:14.593Z,18.80
2018-08-19T07:28:54.950Z,18.90
2018-08-19T07:31:23.364Z,19.00
2018-08-19T07:33:54.635Z,19.10
2018-08-19T07:36:30.387Z,19.10
2018-08-19T07:39:10.739Z,19.20
2018-08-19T07:41:41.829Z,19.30
2018-08-19T07:44:15.154Z,19.30
2018-08-19T07:46:53.598Z,19.30
2018-08-19T07:49:22.460Z,19.40
2018-08-19T07:51:51.100Z,19.50
2018-08-19T07:54:19.736Z,19.60
2018-08-19T07:56:48.358Z,19.80
2018-08-19T07:59:18.016Z,19.70
2018-08-19T08:01:47.561Z,19.80
2018-08-19T08:04:19.607Z,19.90
2018-08-19T08:06:47.992Z,20.00
2018-08-19T08:09:23.489Z,20.10
2018-08-19T08:11:57.330Z,20.10
2018-08-19T08:14:26.926Z,20.20
2018-08-19T08:17:00.745Z,20.30
2018-08-19T08:19:29.309Z,20.40
2018-08-19T08:22:05.133Z,20.50
2018-08-19T08:24:33.686Z,20.50
2018-08-19T08:27:02.092Z,20.60
2018-08-19T08:29:30.746Z,20.70
2018-08-19T08:31:59.921Z,20.70
2018-08-19T08:34:29.354Z,20.70
2018-08-19T08:37:05.508Z,20.80
2018-08-19T08:39:36.947Z,20.90
2018-08-19T08:42:05.988Z,20.90
2018-08-19T08:44:35.487Z,20.80
2018-08-19T08:47:07.723Z,20.80
2018-08-19T08:49:48.490Z,20.90
2018-08-19T08:52:24.342Z,21.00
2018-08-19T08:55:05.524Z,21.20
2018-08-19T08:57:33.973Z,21.20
2018-08-19T09:00:09.290Z,21.10
2018-08-19T09:02:51.953Z,21.20
2018-08-19T09:05:21.562Z,21.20
2018-08-19T09:07:54.830Z,21.30
2018-08-19T09:10:23.917Z,21.20
2018-08-19T09:12:57.399Z,21.20
2018-08-19T09:15:40.476Z,21.30
2018-08-19T09:18:10.165Z,21.50
2018-08-19T09:20:45.290Z,21.50
2018-08-19T09:23:15.966Z,21.50
2018-08-19T09:26:01.962Z,21.60
2018-08-19T09:28:30.368Z,21.70
2018-08-19T09:31:01.015Z,21.90
2018-08-19T09:33:33.269Z,22.10
2018-08-19T09:36:09.970Z,22.20
2018-08-19T09:38:42.457Z,22.40
2018-08-19T09:41:12.084Z,22.50
2018-08-19T09:43:46.338Z,22.70
2018-08-19T09:46:15.036Z,22.60
2018-08-19T09:48:44.593Z,22.60
2018-08-19T09:51:16.304Z,22.50
2018-08-19T09:53:45.100Z,22.40
2018-08-19T09:56:15.988Z,22.30
2018-08-19T09:58:52.032Z,22.20
2018-08-19T10:01:25.916Z,22.20
2018-08-19T10:03:54.583Z,22.20
2018-08-19T10:06:23.391Z,22.30
2018-08-19T10:08:52.309Z,22.50
2018-08-19T10:11:20.934Z,22.60
2018-08-19T10:13:53.876Z,22.60
2018-08-19T10:16:32.500Z,22.50
2018-08-19T10:19:02.438Z,22.50
2018-08-19T10:21:31.237Z,22.60
2018-08-19T10:24:09.964Z,22.60
2018-08-19T10:26:39.765Z,22.70
2018-08-19T10:29:09.411Z,22.80
2018-08-19T10:31:38.128Z,22.70
2018-08-19T10:34:06.776Z,22.80
2018-08-19T10:36:35.526Z,22.80
2018-08-19T10:39:05.335Z,22.90
2018-08-19T10:41:34.017Z,23.00
2018-08-19T10:44:04.758Z,23.20
2018-08-19T10:46:33.523Z,23.20
2018-08-19T10:49:04.131Z,23.20
2018-08-19T10:51:32.850Z,23.30
2018-08-19T10:54:01.461Z,23.50
2018-08-19T10:56:30.160Z,23.50
2018-08-19T10:59:00.584Z,23.50
2018-08-19T11:01:29.858Z,23.40
2018-08-19T11:04:00.667Z,23.60
2018-08-19T11:06:29.532Z,23.60
2018-08-19T11:09:00.557Z,23.60
2018-08-19T11:11:33.319Z,23.60
2018-08-19T11:14:09.385Z,23.50
2018-08-19T11:16:38.190Z,23.40
2018-08-19T11:19:10.537Z,23.50
2018-08-19T11:21:40.509Z,23.50
2018-08-19T11:24:22.183Z,23.50
2018-08-19T11:27:04.738Z,23.40
2018-08-19T11:29:56.983Z,23.40
2018-08-19T11:32:35.781Z,23.50
2018-08-19T11:35:06.471Z,23.60
2018-08-19T11:37:35.083Z,23.70
2018-08-19T11:40:03.718Z,23.90
2018-08-19T11:42:33.303Z,23.90
2018-08-19T11:45:01.799Z,23.90
2018-08-19T11:47:34.424Z,23.90
2018-08-19T11:50:06.194Z,23.70
2018-08-19T11:52:34.877Z,23.60
2018-08-19T11:55:03.549Z,23.60
2018-08-19T11:57:32.223Z,23.70
2018-08-19T12:00:01.859Z,23.90
2018-08-19T12:02:30.478Z,23.90
2018-08-19T12:05:02.837Z,24.00
2018-08-19T12:07:37.097Z,24.00
2018-08-19T12:10:17.161Z,24.20
2018-08-19T12:12:51.730Z,24.20
2018-08-19T12:15:24.272Z,24.40
2018-08-19T12:17:54.048Z,24.40
2018-08-19T12:20:38.023Z,24.50
2018-08-19T12:23:09.105Z,24.50
2018-08-19T12:25:37.667Z,24.50
2018-08-19T12:28:06.496Z,24.30
2018-08-19T12:30:35.038Z,24.30
2018-08-19T12:33:14.821Z,24.20
2018-08-19T12:35:43.514Z,24.10
2018-08-19T12:38:12.154Z,24.00
2018-08-19T12:40:47.634Z,24.00
2018-08-19T12:43:26.640Z,23.80
2018-08-19T12:46:06.511Z,23.80
2018-08-19T12:48:35.224Z,23.90
2018-08-19T12:51:04.730Z,23.80
2018-08-19T12:53:34.912Z,23.80
2018-08-19T12:56:03.678Z,23.90
2018-08-19T12:58:32.368Z,23.90
2018-08-19T13:01:00.844Z,24.00
2018-08-19T13:03:29.442Z,24.20
2018-08-19T13:06:06.511Z,24.40
2018-08-19T13:08:35.088Z,24.30
2018-08-19T13:11:05.739Z,24.20
2018-08-19T13:13:35.643Z,24.30
2018-08-19T13:16:04.413Z,24.50
2018-08-19T13:18:38.479Z,24.40
2018-08-19T13:21:18.675Z,24.20
2018-08-19T13:23:49.369Z,24.00
2018-08-19T13:26:18.321Z,24.00
2018-08-19T13:28:52.167Z,24.10
2018-08-19T13:31:25.993Z,24.20
2018-08-19T13:34:04.926Z,24.40
2018-08-19T13:36:39.797Z,24.40
2018-08-19T13:39:09.615Z,24.50
2018-08-19T13:41:39.669Z,24.50
2018-08-19T13:44:09.703Z,24.60
2018-08-19T13:46:39.833Z,24.70
2018-08-19T13:49:10.746Z,24.80
2018-08-19T13:51:39.675Z,24.80
2018-08-19T13:54:08.690Z,24.90
2018-08-19T13:56:38.592Z,25.00
2018-08-19T13:59:07.592Z,25.10
2018-08-19T14:01:36.549Z,25.10
2018-08-19T14:04:08.249Z,25.20
2018-08-19T14:06:43.456Z,25.10
2018-08-19T14:09:13.495Z,24.80
2018-08-19T14:11:42.477Z,24.70
2018-08-19T14:14:11.962Z,24.80
2018-08-19T14:16:41.983Z,24.80
2018-08-19T14:19:10.737Z,24.80
2018-08-19T14:21:39.594Z,24.80
2018-08-19T14:24:08.509Z,24.80
2018-08-19T14:26:37.525Z,24.90
2018-08-19T14:29:06.674Z,24.80
2018-08-19T14:31:40.067Z,24.70
2018-08-19T14:34:09.328Z,24.60
2018-08-19T14:36:40.171Z,24.60
2018-08-19T14:39:11.925Z,24.70
2018-08-19T14:41:40.965Z,24.80
2018-08-19T14:44:13.936Z,24.80
2018-08-19T14:46:44.571Z,24.90
2018-08-19T14:49:13.873Z,25.00
2018-08-19T14:52:02.308Z,25.10
2018-08-19T14:54:42.641Z,25.00
2018-08-19T14:57:22.423Z,24.90
2018-08-19T15:00:02.952Z,24.80
2018-08-19T15:02:32.796Z,24.80
2018-08-19T15:05:05.433Z,24.80
2018-08-19T15:07:34.426Z,24.80
2018-08-19T15:10:05.857Z,24.90
2018-08-19T15:12:34.673Z,25.00
2018-08-19T15:15:04.359Z,24.90
2018-08-19T15:17:37.785Z,24.80
2018-08-19T15:20:06.681Z,24.80
2018-08-19T15:22:40.091Z,24.70
2018-08-19T15:25:10.629Z,24.70
2018-08-19T15:27:57.045Z,24.80
2018-08-19T15:30:33.983Z,24.80
2018-08-19T15:33:05.325Z,24.80
2018-08-19T15:35:34.513Z,24.70
2018-08-19T15:38:03.011Z,24.60
2018-08-19T15:40:41.603Z,24.60
2018-08-19T15:43:11.439Z,24.70
2018-08-19T15:45:41.079Z,24.80
2018-08-19T15:48:10.309Z,24.80
2018-08-19T15:50:39.280Z,24.80
2018-08-19T15:53:09.977Z,24.70
2018-08-19T15:55:39.643Z,24.70
2018-08-19T15:58:10.847Z,24.60
2018-08-19T16:00:41.615Z,24.50
2018-08-19T16:03:15.145Z,24.50
2018-08-19T16:05:44.244Z,24.60
2018-08-19T16:08:15.674Z,24.60
2018-08-19T16:10:48.421Z,24.50
2018-08-19T16:13:17.483Z,24.40
2018-08-19T16:15:46.722Z,24.40
2018-08-19T16:18:18.708Z,24.40
2018-08-19T16:20:55.513Z,24.40
2018-08-19T16:23:24.747Z,24.40
2018-08-19T16:25:54.887Z,24.30
2018-08-19T16:28:23.994Z,24.20
2018-08-19T16:30:53.178Z,24.10
2018-08-19T16:33:22.177Z,24.10
2018-08-19T16:35:51.410Z,24.10
2018-08-19T16:38:22.385Z,24.20
2018-08-19T16:40:54.419Z,24.30
2018-08-19T16:43:23.069Z,24.40
2018-08-19T16:45:53.055Z,24.50
2018-08-19T16:48:22.691Z,24.60
2018-08-19T16:50:51.791Z,24.50
2018-08-19T16:53:20.641Z,24.60
2018-08-19T16:55:49.461Z,24.60
2018-08-19T16:58:20.841Z,24.50
2018-08-19T17:00:51.036Z,24.40
2018-08-19T17:03:32.699Z,24.30
2018-08-19T17:06:02.231Z,24.40
2018-08-19T17:08:40.241Z,24.40
2018-08-19T17:11:17.118Z,24.40
2018-08-19T17:13:47.000Z,24.30
2018-08-19T17:16:16.685Z,24.40
2018-08-19T17:18:48.070Z,24.40
2018-08-19T17:21:17.147Z,24.30
2018-08-19T17:23:51.565Z,24.10
2018-08-19T17:26:23.048Z,23.90
2018-08-19T17:29:04.678Z,23.80
2018-08-19T17:31:34.773Z,23.70
2018-08-19T17:34:10.453Z,23.60
2018-08-19T17:36:41.538Z,23.50
2018-08-19T17:39:22.125Z,23.40
2018-08-19T17:41:53.264Z,23.40
2018-08-19T17:44:26.783Z,23.30
2018-08-19T17:46:57.878Z,23.40
2018-08-19T17:49:36.205Z,23.30
2018-08-19T17:52:05.118Z,23.30
2018-08-19T17:54:35.351Z,23.30
2018-08-19T17:57:06.291Z,23.20
2018-08-19T17:59:36.933Z,23.20
2018-08-19T18:02:11.895Z,23.20
2018-08-19T18:04:46.318Z,23.10
2018-08-19T18:07:22.648Z,23.10
2018-08-19T18:09:58.460Z,23.20
2018-08-19T18:12:35.070Z,23.10
2018-08-19T18:15:05.903Z,23.10
2018-08-19T18:17:34.759Z,23.10
2018-08-19T18:20:26.418Z,23.00
2018-08-19T18:22:56.230Z,22.90
2018-08-19T18:25:28.171Z,22.80
2018-08-19T18:27:57.144Z,22.80
2018-08-19T18:30:27.957Z,22.80
2018-08-19T18:32:57.036Z,22.80
2018-08-19T18:35:26.909Z,22.70
2018-08-19T18:37:58.629Z,22.60
2018-08-19T18:40:33.944Z,22.60
2018-08-19T18:43:03.097Z,22.50
2018-08-19T18:45:33.267Z,22.50
2018-08-19T18:48:03.071Z,22.40
2018-08-19T18:50:32.659Z,22.40
2018-08-19T18:53:04.119Z,22.30
2018-08-19T18:55:38.357Z,22.30
2018-08-19T18:58:09.535Z,22.30
2018-08-19T19:01:13.622Z,22.20
2018-08-19T19:03:42.726Z,22.20
2018-08-19T19:06:12.639Z,22.20
2018-08-19T19:08:45.945Z,22.10
2018-08-19T19:11:32.478Z,22.10
2018-08-19T19:14:12.261Z,22.10
2018-08-19T19:16:42.136Z,22.00
2018-08-19T19:19:19.791Z,22.10
2018-08-19T19:22:00.406Z,22.10
2018-08-19T19:24:34.575Z,22.20
2018-08-19T19:27:03.605Z,22.20
2018-08-19T19:29:40.156Z,22.10
2018-08-19T19:32:21.078Z,22.00
2018-08-19T19:34:54.370Z,22.00
2018-08-19T19:37:24.266Z,21.80
2018-08-19T19:39:58.343Z,21.80
2018-08-19T19:42:26.899Z,21.70
2018-08-19T19:44:55.744Z,21.70
2018-08-19T19:47:25.512Z,21.70
2018-08-19T19:49:56.543Z,21.70
2018-08-19T19:52:26.386Z,21.70
2018-08-19T19:54:57.674Z,21.60
2018-08-19T19:57:28.839Z,21.60
2018-08-19T20:00:01.431Z,21.60
2018-08-19T20:02:32.158Z,21.50
2018-08-19T20:05:09.138Z,21.50
2018-08-19T20:07:44.304Z,21.40
2018-08-19T20:10:25.773Z,21.40
2018-08-19T20:12:57.437Z,21.40
2018-08-19T20:15:32.070Z,21.40
2018-08-19T20:18:06.589Z,21.30
2018-08-19T20:20:36.242Z,21.20
2018-08-19T20:23:10.984Z,21.20
2018-08-19T20:25:39.710Z,21.20
2018-08-19T20:28:09.921Z,21.20
2018-08-19T20:30:40.542Z,21.20
2018-08-19T20:33:16.917Z,21.10
2018-08-19T20:35:49.682Z,21.10
2018-08-19T20:38:29.234Z,21.10
2018-08-19T20:41:10.241Z,21.10
2018-08-19T20:43:42.829Z,21.00
2018-08-19T20:46:18.904Z,21.00
2018-08-19T20:48:49.051Z,21.00
2018-08-19T20:51:17.948Z,21.00
2018-08-19T20:53:46.601Z,21.00
2018-08-19T20:56:15.149Z,21.00
2018-08-19T20:58:49.977Z,20.90
2018-08-19T21:01:24.932Z,20.90
2018-08-19T21:03:57.739Z,21.00
2018-08-19T21:06:27.370Z,20.90
2018-08-19T21:08:57.034Z,20.90
2018-08-19T21:11:25.713Z,20.90
2018-08-19T21:13:55.425Z,20.90
2018-08-19T21:16:35.329Z,20.90
2018-08-19T21:19:06.039Z,20.90
2018-08-19T21:21:38.847Z,20.90
2018-08-19T21:24:07.523Z,20.90
2018-08-19T21:26:36.205Z,20.80
2018-08-19T21:29:05.893Z,20.80
2018-08-19T21:31:42.766Z,20.80
2018-08-19T21:34:21.609Z,20.80
2018-08-19T21:36:50.017Z,20.80
2018-08-19T21:39:19.691Z,20.80
2018-08-19T21:41:49.775Z,20.80
2018-08-19T21:44:19.945Z,20.80
2018-08-19T21:47:07.189Z,20.80
2018-08-19T21:49:42.590Z,20.80
2018-08-19T21:52:15.800Z,20.70
2018-08-19T21:54:44.294Z,20.60
2018-08-19T21:57:14.848Z,20.60
2018-08-19T21:59:45.388Z,20.60
2018-08-19T22:02:25.348Z,20.50
2018-08-19T22:05:00.961Z,20.50
2018-08-19T22:07:29.641Z,20.40
2018-08-19T22:10:00.156Z,20.30
2018-08-19T22:12:29.716Z,20.30
2018-08-19T22:15:04.295Z,20.20
2018-08-19T22:17:38.486Z,20.10
2018-08-19T22:20:08.992Z,20.10
2018-08-19T22:22:38.682Z,20.00
2018-08-19T22:25:08.321Z,19.90
2018-08-19T22:27:39.936Z,19.90
2018-08-19T22:30:19.060Z,19.90
2018-08-19T22:32:49.134Z,19.80
2018-08-19T22:35:17.832Z,19.80
2018-08-19T22:37:47.298Z,19.70
2018-08-19T22:40:23.854Z,19.70
2018-08-19T22:42:54.507Z,19.70
2018-08-19T22:45:33.306Z,19.60
2018-08-19T22:48:16.408Z,19.60
2018-08-19T22:50:49.466Z,19.50
2018-08-19T22:53:19.138Z,19.50
2018-08-19T22:55:49.592Z,19.50
2018-08-19T22:58:18.262Z,19.50
2018-08-19T23:00:52.156Z,19.50
2018-08-19T23:06:23.933Z,19.40
2018-08-19T23:09:04.637Z,19.40
2018-08-19T23:11:46.542Z,19.30
2018-08-19T23:14:28.232Z,19.20
2018-08-19T23:17:07.991Z,19.20
2018-08-19T23:19:37.304Z,19.10
2018-08-19T23:22:10.444Z,19.10
2018-08-19T23:24:54.230Z,19.10
2018-08-19T23:27:24.934Z,19.10
2018-08-19T23:30:10.260Z,19.20
2018-08-19T23:32:41.904Z,19.10
2018-08-19T23:35:10.420Z,19.20
2018-08-19T23:37:44.436Z,19.30
2018-08-19T23:40:14.942Z,19.20
2018-08-19T23:42:43.838Z,19.30
2018-08-19T23:45:12.270Z,19.30
2018-08-19T23:47:42.772Z,19.30
2018-08-19T23:50:11.188Z,19.30
2018-08-19T23:52:51.344Z,19.30
2018-08-19T23:55:19.924Z,19.30
2018-08-19T23:57:49.487Z,19.40
